sensor_id;sensor_type;location;lat;lon;timestamp;P1;durP1;ratioP1;P2;durP2;ratioP2
20251;SDS011;10284;58.364;15.550;2022-08-19T00:02:04;22.38;;;19.35;;
20251;SDS011;10284;58.364;15.550;2022-08-19T00:04:31;19.17;;;17.17;;
20251;SDS011;10284;58.364;15.550;2022-08-19T00:07:01;20.25;;;17.50;;
20251;SDS011;10284;58.364;15.550;2022-08-19T00:09:27;20.42;;;16.42;;
20251;SDS011;10284;58.364;15.550;2022-08-19T00:11:53;19.23;;;17.10;;
20251;SDS011;10284;58.364;15.550;2022-08-19T00:14:20;19.50;;;17.20;;
20251;SDS011;10284;58.364;15.550;2022-08-19T00:16:47;26.20;;;20.73;;
20251;SDS011;10284;58.364;15.550;2022-08-19T00:19:13;21.08;;;18.25;;
20251;SDS011;10284;58.364;15.550;2022-08-19T00:21:40;21.05;;;18.85;;
20251;SDS011;10284;58.364;15.550;2022-08-19T00:24:09;23.85;;;19.35;;
20251;SDS011;10284;58.364;15.550;2022-08-19T00:26:36;21.52;;;19.02;;
20251;SDS011;10284;58.364;15.550;2022-08-19T00:29:03;23.63;;;19.63;;
20251;SDS011;10284;58.364;15.550;2022-08-19T00:31:29;20.38;;;18.20;;
20251;SDS011;10284;58.364;15.550;2022-08-19T00:33:56;21.98;;;19.50;;
20251;SDS011;10284;58.364;15.550;2022-08-19T00:36:22;21.60;;;19.15;;
20251;SDS011;10284;58.364;15.550;2022-08-19T00:38:47;21.15;;;18.95;;
20251;SDS011;10284;58.364;15.550;2022-08-19T00:41:13;21.95;;;19.55;;
20251;SDS011;10284;58.364;15.550;2022-08-19T00:43:41;20.65;;;18.50;;
20251;SDS011;10284;58.364;15.550;2022-08-19T00:46:06;20.50;;;18.45;;
20251;SDS011;10284;58.364;15.550;2022-08-19T00:48:33;21.90;;;19.30;;
20251;SDS011;10284;58.364;15.550;2022-08-19T00:50:58;23.15;;;19.13;;
20251;SDS011;10284;58.364;15.550;2022-08-19T00:53:26;24.27;;;19.67;;
20251;SDS011;10284;58.364;15.550;2022-08-19T00:55:53;21.60;;;19.25;;
20251;SDS011;10284;58.364;15.550;2022-08-19T00:58:21;26.75;;;22.80;;
20251;SDS011;10284;58.364;15.550;2022-08-19T01:00:47;27.50;;;24.10;;
20251;SDS011;10284;58.364;15.550;2022-08-19T01:03:18;24.10;;;20.67;;
20251;SDS011;10284;58.364;15.550;2022-08-19T01:05:45;25.52;;;21.17;;
20251;SDS011;10284;58.364;15.550;2022-08-19T01:08:11;25.33;;;22.48;;
20251;SDS011;10284;58.364;15.550;2022-08-19T01:10:37;22.33;;;20.02;;
20251;SDS011;10284;58.364;15.550;2022-08-19T01:13:06;20.15;;;17.55;;
20251;SDS011;10284;58.364;15.550;2022-08-19T01:15:34;17.63;;;15.82;;
20251;SDS011;10284;58.364;15.550;2022-08-19T01:18:08;15.40;;;13.77;;
20251;SDS011;10284;58.364;15.550;2022-08-19T01:20:35;14.05;;;12.65;;
20251;SDS011;10284;58.364;15.550;2022-08-19T01:23:01;15.15;;;13.63;;
20251;SDS011;10284;58.364;15.550;2022-08-19T01:25:29;16.33;;;14.68;;
20251;SDS011;10284;58.364;15.550;2022-08-19T01:27:57;15.05;;;13.55;;
20251;SDS011;10284;58.364;15.550;2022-08-19T01:30:24;18.77;;;16.80;;
20251;SDS011;10284;58.364;15.550;2022-08-19T01:32:52;19.80;;;17.70;;
20251;SDS011;10284;58.364;15.550;2022-08-19T01:35:19;23.73;;;18.98;;
20251;SDS011;10284;58.364;15.550;2022-08-19T01:37:47;20.50;;;18.20;;
20251;SDS011;10284;58.364;15.550;2022-08-19T01:40:18;23.50;;;21.00;;
20251;SDS011;10284;58.364;15.550;2022-08-19T01:42:45;22.00;;;17.48;;
20251;SDS011;10284;58.364;15.550;2022-08-19T01:45:12;19.70;;;17.63;;
20251;SDS011;10284;58.364;15.550;2022-08-19T01:47:38;19.63;;;17.65;;
20251;SDS011;10284;58.364;15.550;2022-08-19T01:50:04;20.92;;;18.23;;
20251;SDS011;10284;58.364;15.550;2022-08-19T01:52:31;33.58;;;25.38;;
20251;SDS011;10284;58.364;15.550;2022-08-19T01:54:56;33.25;;;26.48;;
20251;SDS011;10284;58.364;15.550;2022-08-19T01:57:22;37.13;;;29.30;;
20251;SDS011;10284;58.364;15.550;2022-08-19T01:59:47;36.22;;;25.77;;
20251;SDS011;10284;58.364;15.550;2022-08-19T02:02:13;37.35;;;29.85;;
20251;SDS011;10284;58.364;15.550;2022-08-19T02:04:38;39.15;;;29.65;;
20251;SDS011;10284;58.364;15.550;2022-08-19T02:07:04;39.25;;;29.65;;
20251;SDS011;10284;58.364;15.550;2022-08-19T02:09:31;42.22;;;29.92;;
20251;SDS011;10284;58.364;15.550;2022-08-19T02:11:57;38.97;;;30.05;;
20251;SDS011;10284;58.364;15.550;2022-08-19T02:14:23;43.40;;;31.13;;
20251;SDS011;10284;58.364;15.550;2022-08-19T02:16:49;41.70;;;30.67;;
20251;SDS011;10284;58.364;15.550;2022-08-19T02:19:14;37.78;;;28.13;;
20251;SDS011;10284;58.364;15.550;2022-08-19T02:21:40;36.67;;;27.70;;
20251;SDS011;10284;58.364;15.550;2022-08-19T02:24:05;41.15;;;29.23;;
20251;SDS011;10284;58.364;15.550;2022-08-19T02:26:31;37.83;;;28.40;;
20251;SDS011;10284;58.364;15.550;2022-08-19T02:28:57;39.40;;;29.02;;
20251;SDS011;10284;58.364;15.550;2022-08-19T02:31:24;37.60;;;27.92;;
20251;SDS011;10284;58.364;15.550;2022-08-19T02:33:50;42.97;;;29.83;;
20251;SDS011;10284;58.364;15.550;2022-08-19T02:36:17;39.67;;;28.58;;
20251;SDS011;10284;58.364;15.550;2022-08-19T02:38:42;50.42;;;31.23;;
20251;SDS011;10284;58.364;15.550;2022-08-19T02:41:16;42.95;;;30.85;;
20251;SDS011;10284;58.364;15.550;2022-08-19T02:43:43;47.97;;;31.90;;
20251;SDS011;10284;58.364;15.550;2022-08-19T02:46:13;38.25;;;28.88;;
20251;SDS011;10284;58.364;15.550;2022-08-19T02:48:39;40.95;;;29.15;;
20251;SDS011;10284;58.364;15.550;2022-08-19T02:51:05;38.33;;;28.38;;
20251;SDS011;10284;58.364;15.550;2022-08-19T02:53:30;43.15;;;29.77;;
20251;SDS011;10284;58.364;15.550;2022-08-19T02:55:56;36.80;;;28.48;;
20251;SDS011;10284;58.364;15.550;2022-08-19T02:58:22;39.85;;;27.50;;
20251;SDS011;10284;58.364;15.550;2022-08-19T03:00:50;32.42;;;25.40;;
20251;SDS011;10284;58.364;15.550;2022-08-19T03:03:20;36.88;;;27.48;;
20251;SDS011;10284;58.364;15.550;2022-08-19T03:05:46;40.35;;;28.25;;
20251;SDS011;10284;58.364;15.550;2022-08-19T03:08:12;39.60;;;27.23;;
20251;SDS011;10284;58.364;15.550;2022-08-19T03:10:44;38.45;;;28.50;;
20251;SDS011;10284;58.364;15.550;2022-08-19T03:13:12;41.25;;;29.48;;
20251;SDS011;10284;58.364;15.550;2022-08-19T03:15:39;39.67;;;28.52;;
20251;SDS011;10284;58.364;15.550;2022-08-19T03:18:06;49.65;;;32.10;;
20251;SDS011;10284;58.364;15.550;2022-08-19T03:20:31;47.30;;;32.25;;
20251;SDS011;10284;58.364;15.550;2022-08-19T03:22:57;47.60;;;32.17;;
20251;SDS011;10284;58.364;15.550;2022-08-19T03:25:23;39.92;;;30.10;;
20251;SDS011;10284;58.364;15.550;2022-08-19T03:27:49;40.33;;;30.70;;
20251;SDS011;10284;58.364;15.550;2022-08-19T03:30:14;44.53;;;30.70;;
20251;SDS011;10284;58.364;15.550;2022-08-19T03:32:40;47.00;;;32.35;;
20251;SDS011;10284;58.364;15.550;2022-08-19T03:35:05;48.50;;;33.15;;
20251;SDS011;10284;58.364;15.550;2022-08-19T03:37:31;56.53;;;32.55;;
20251;SDS011;10284;58.364;15.550;2022-08-19T03:39:57;57.50;;;32.42;;
20251;SDS011;10284;58.364;15.550;2022-08-19T03:42:22;49.50;;;33.28;;
20251;SDS011;10284;58.364;15.550;2022-08-19T03:44:47;48.33;;;32.78;;
20251;SDS011;10284;58.364;15.550;2022-08-19T03:47:13;45.60;;;32.42;;
20251;SDS011;10284;58.364;15.550;2022-08-19T03:49:42;50.63;;;33.83;;
20251;SDS011;10284;58.364;15.550;2022-08-19T03:52:07;56.15;;;35.00;;
20251;SDS011;10284;58.364;15.550;2022-08-19T03:54:33;62.65;;;33.97;;
20251;SDS011;10284;58.364;15.550;2022-08-19T03:56:58;51.13;;;35.25;;
20251;SDS011;10284;58.364;15.550;2022-08-19T03:59:26;53.28;;;34.50;;
20251;SDS011;10284;58.364;15.550;2022-08-19T04:01:56;55.45;;;34.30;;
20251;SDS011;10284;58.364;15.550;2022-08-19T04:04:23;60.28;;;33.85;;
20251;SDS011;10284;58.364;15.550;2022-08-19T04:06:49;53.00;;;33.25;;
20251;SDS011;10284;58.364;15.550;2022-08-19T04:09:15;51.92;;;35.50;;
20251;SDS011;10284;58.364;15.550;2022-08-19T04:11:43;49.20;;;33.53;;
20251;SDS011;10284;58.364;15.550;2022-08-19T04:14:14;53.50;;;32.67;;
20251;SDS011;10284;58.364;15.550;2022-08-19T04:16:41;54.00;;;33.60;;
20251;SDS011;10284;58.364;15.550;2022-08-19T04:19:08;51.35;;;33.10;;
20251;SDS011;10284;58.364;15.550;2022-08-19T04:21:34;48.38;;;31.23;;
20251;SDS011;10284;58.364;15.550;2022-08-19T04:23:59;48.90;;;33.00;;
20251;SDS011;10284;58.364;15.550;2022-08-19T04:26:27;50.85;;;32.08;;
20251;SDS011;10284;58.364;15.550;2022-08-19T04:28:56;53.00;;;30.55;;
20251;SDS011;10284;58.364;15.550;2022-08-19T04:31:23;51.28;;;31.60;;
20251;SDS011;10284;58.364;15.550;2022-08-19T04:33:53;47.72;;;32.58;;
20251;SDS011;10284;58.364;15.550;2022-08-19T04:36:25;53.47;;;32.92;;
20251;SDS011;10284;58.364;15.550;2022-08-19T04:38:56;48.85;;;32.35;;
20251;SDS011;10284;58.364;15.550;2022-08-19T04:41:23;46.50;;;32.30;;
20251;SDS011;10284;58.364;15.550;2022-08-19T04:44:07;50.25;;;32.50;;
20251;SDS011;10284;58.364;15.550;2022-08-19T04:46:33;44.13;;;31.42;;
20251;SDS011;10284;58.364;15.550;2022-08-19T04:49:00;49.22;;;32.60;;
20251;SDS011;10284;58.364;15.550;2022-08-19T04:51:26;44.75;;;30.85;;
20251;SDS011;10284;58.364;15.550;2022-08-19T04:53:52;43.92;;;29.92;;
20251;SDS011;10284;58.364;15.550;2022-08-19T04:56:18;45.55;;;30.52;;
20251;SDS011;10284;58.364;15.550;2022-08-19T04:58:46;45.63;;;31.20;;
20251;SDS011;10284;58.364;15.550;2022-08-19T05:01:17;42.70;;;30.27;;
20251;SDS011;10284;58.364;15.550;2022-08-19T05:03:44;45.00;;;30.33;;
20251;SDS011;10284;58.364;15.550;2022-08-19T05:06:11;43.40;;;29.40;;
20251;SDS011;10284;58.364;15.550;2022-08-19T05:08:39;40.28;;;28.20;;
20251;SDS011;10284;58.364;15.550;2022-08-19T05:13:38;41.88;;;28.95;;
20251;SDS011;10284;58.364;15.550;2022-08-19T05:16:04;43.30;;;28.05;;
20251;SDS011;10284;58.364;15.550;2022-08-19T05:18:29;35.50;;;26.73;;
20251;SDS011;10284;58.364;15.550;2022-08-19T05:21:14;37.13;;;26.80;;
20251;SDS011;10284;58.364;15.550;2022-08-19T05:24:00;34.88;;;25.35;;
20251;SDS011;10284;58.364;15.550;2022-08-19T05:26:27;38.10;;;26.98;;
20251;SDS011;10284;58.364;15.550;2022-08-19T05:28:53;33.55;;;25.48;;
20251;SDS011;10284;58.364;15.550;2022-08-19T05:31:18;33.15;;;24.85;;
20251;SDS011;10284;58.364;15.550;2022-08-19T05:33:44;33.97;;;25.52;;
20251;SDS011;10284;58.364;15.550;2022-08-19T05:36:10;28.08;;;23.80;;
20251;SDS011;10284;58.364;15.550;2022-08-19T05:38:36;30.48;;;23.42;;
20251;SDS011;10284;58.364;15.550;2022-08-19T05:41:11;34.55;;;25.67;;
20251;SDS011;10284;58.364;15.550;2022-08-19T05:43:38;34.53;;;26.20;;
20251;SDS011;10284;58.364;15.550;2022-08-19T05:46:04;34.17;;;26.35;;
20251;SDS011;10284;58.364;15.550;2022-08-19T05:48:31;34.22;;;27.15;;
20251;SDS011;10284;58.364;15.550;2022-08-19T05:51:03;33.00;;;24.92;;
20251;SDS011;10284;58.364;15.550;2022-08-19T05:53:31;45.15;;;25.60;;
20251;SDS011;10284;58.364;15.550;2022-08-19T05:55:56;28.95;;;24.60;;
20251;SDS011;10284;58.364;15.550;2022-08-19T05:58:21;30.23;;;23.58;;
20251;SDS011;10284;58.364;15.550;2022-08-19T06:00:47;29.80;;;23.80;;
20251;SDS011;10284;58.364;15.550;2022-08-19T06:03:12;28.40;;;23.55;;
20251;SDS011;10284;58.364;15.550;2022-08-19T06:05:38;25.65;;;22.73;;
20251;SDS011;10284;58.364;15.550;2022-08-19T06:08:03;28.33;;;24.75;;
20251;SDS011;10284;58.364;15.550;2022-08-19T06:10:29;28.10;;;23.42;;
20251;SDS011;10284;58.364;15.550;2022-08-19T06:12:54;28.73;;;22.83;;
20251;SDS011;10284;58.364;15.550;2022-08-19T06:15:21;26.80;;;22.88;;
20251;SDS011;10284;58.364;15.550;2022-08-19T06:17:50;23.90;;;21.40;;
20251;SDS011;10284;58.364;15.550;2022-08-19T06:20:15;25.20;;;22.52;;
20251;SDS011;10284;58.364;15.550;2022-08-19T06:22:44;23.80;;;20.42;;
20251;SDS011;10284;58.364;15.550;2022-08-19T06:25:12;22.48;;;20.05;;
20251;SDS011;10284;58.364;15.550;2022-08-19T06:27:38;21.27;;;19.02;;
20251;SDS011;10284;58.364;15.550;2022-08-19T06:30:04;22.92;;;18.52;;
20251;SDS011;10284;58.364;15.550;2022-08-19T06:32:30;19.27;;;17.27;;
20251;SDS011;10284;58.364;15.550;2022-08-19T06:34:55;21.15;;;17.27;;
20251;SDS011;10284;58.364;15.550;2022-08-19T06:37:21;19.25;;;17.13;;
20251;SDS011;10284;58.364;15.550;2022-08-19T06:39:47;18.88;;;16.58;;
20251;SDS011;10284;58.364;15.550;2022-08-19T06:42:13;17.40;;;15.52;;
20251;SDS011;10284;58.364;15.550;2022-08-19T06:44:41;15.85;;;14.25;;
20251;SDS011;10284;58.364;15.550;2022-08-19T06:47:08;18.55;;;15.35;;
20251;SDS011;10284;58.364;15.550;2022-08-19T06:49:35;16.90;;;14.82;;
20251;SDS011;10284;58.364;15.550;2022-08-19T06:52:01;22.30;;;15.20;;
20251;SDS011;10284;58.364;15.550;2022-08-19T06:54:27;16.60;;;14.88;;
20251;SDS011;10284;58.364;15.550;2022-08-19T06:56:54;15.63;;;13.80;;
20251;SDS011;10284;58.364;15.550;2022-08-19T06:59:21;16.30;;;12.85;;
20251;SDS011;10284;58.364;15.550;2022-08-19T07:01:52;14.40;;;12.65;;
20251;SDS011;10284;58.364;15.550;2022-08-19T07:04:21;16.48;;;12.80;;
20251;SDS011;10284;58.364;15.550;2022-08-19T07:06:59;13.57;;;11.93;;
20251;SDS011;10284;58.364;15.550;2022-08-19T07:09:31;13.82;;;12.02;;
20251;SDS011;10284;58.364;15.550;2022-08-19T07:11:57;13.65;;;11.52;;
20251;SDS011;10284;58.364;15.550;2022-08-19T07:14:23;19.20;;;10.95;;
20251;SDS011;10284;58.364;15.550;2022-08-19T07:16:51;12.32;;;10.63;;
20251;SDS011;10284;58.364;15.550;2022-08-19T07:19:20;13.52;;;10.35;;
20251;SDS011;10284;58.364;15.550;2022-08-19T07:21:47;11.63;;;10.50;;
20251;SDS011;10284;58.364;15.550;2022-08-19T07:24:17;11.95;;;10.68;;
20251;SDS011;10284;58.364;15.550;2022-08-19T07:26:42;13.43;;;10.52;;
20251;SDS011;10284;58.364;15.550;2022-08-19T07:29:09;14.27;;;10.05;;
20251;SDS011;10284;58.364;15.550;2022-08-19T07:31:35;11.55;;;9.88;;
20251;SDS011;10284;58.364;15.550;2022-08-19T07:34:03;12.23;;;10.20;;
20251;SDS011;10284;58.364;15.550;2022-08-19T07:36:33;11.43;;;9.85;;
20251;SDS011;10284;58.364;15.550;2022-08-19T07:39:00;12.88;;;9.88;;
20251;SDS011;10284;58.364;15.550;2022-08-19T07:41:29;10.60;;;9.50;;
20251;SDS011;10284;58.364;15.550;2022-08-19T07:43:56;10.02;;;9.13;;
20251;SDS011;10284;58.364;15.550;2022-08-19T07:46:22;12.05;;;9.70;;
20251;SDS011;10284;58.364;15.550;2022-08-19T07:48:48;10.98;;;9.80;;
20251;SDS011;10284;58.364;15.550;2022-08-19T07:51:16;10.90;;;8.95;;
20251;SDS011;10284;58.364;15.550;2022-08-19T07:53:44;10.70;;;9.02;;
20251;SDS011;10284;58.364;15.550;2022-08-19T07:56:11;12.68;;;9.43;;
20251;SDS011;10284;58.364;15.550;2022-08-19T07:58:38;11.65;;;9.93;;
20251;SDS011;10284;58.364;15.550;2022-08-19T08:01:06;11.93;;;9.50;;
20251;SDS011;10284;58.364;15.550;2022-08-19T08:03:32;12.82;;;9.80;;
20251;SDS011;10284;58.364;15.550;2022-08-19T08:06:16;13.18;;;9.30;;
20251;SDS011;10284;58.364;15.550;2022-08-19T08:09:02;12.48;;;9.05;;
20251;SDS011;10284;58.364;15.550;2022-08-19T08:11:56;11.23;;;9.02;;
20251;SDS011;10284;58.364;15.550;2022-08-19T08:14:35;10.35;;;8.63;;
20251;SDS011;10284;58.364;15.550;2022-08-19T08:17:04;11.27;;;8.93;;
20251;SDS011;10284;58.364;15.550;2022-08-19T08:19:31;12.30;;;8.85;;
20251;SDS011;10284;58.364;15.550;2022-08-19T08:21:57;14.38;;;9.13;;
20251;SDS011;10284;58.364;15.550;2022-08-19T08:24:24;13.50;;;9.15;;
20251;SDS011;10284;58.364;15.550;2022-08-19T08:26:51;10.35;;;8.60;;
20251;SDS011;10284;58.364;15.550;2022-08-19T08:29:16;10.48;;;8.75;;
20251;SDS011;10284;58.364;15.550;2022-08-19T08:31:43;10.00;;;8.65;;
20251;SDS011;10284;58.364;15.550;2022-08-19T08:34:10;11.60;;;8.95;;
20251;SDS011;10284;58.364;15.550;2022-08-19T08:36:37;15.00;;;8.85;;
20251;SDS011;10284;58.364;15.550;2022-08-19T08:39:06;10.85;;;8.73;;
20251;SDS011;10284;58.364;15.550;2022-08-19T08:44:12;12.68;;;9.20;;
20251;SDS011;10284;58.364;15.550;2022-08-19T08:46:47;9.45;;;8.52;;
20251;SDS011;10284;58.364;15.550;2022-08-19T08:51:52;10.55;;;8.73;;
20251;SDS011;10284;58.364;15.550;2022-08-19T08:54:24;10.45;;;9.15;;
20251;SDS011;10284;58.364;15.550;2022-08-19T08:56:54;9.50;;;8.25;;
20251;SDS011;10284;58.364;15.550;2022-08-19T08:59:41;9.50;;;8.50;;
20251;SDS011;10284;58.364;15.550;2022-08-19T09:02:06;11.25;;;8.60;;
20251;SDS011;10284;58.364;15.550;2022-08-19T09:04:33;10.15;;;8.63;;
20251;SDS011;10284;58.364;15.550;2022-08-19T09:09:40;10.18;;;8.82;;
20251;SDS011;10284;58.364;15.550;2022-08-19T09:14:58;11.45;;;8.45;;
20251;SDS011;10284;58.364;15.550;2022-08-19T09:17:26;11.90;;;8.50;;
20251;SDS011;10284;58.364;15.550;2022-08-19T09:20:15;13.05;;;9.07;;
20251;SDS011;10284;58.364;15.550;2022-08-19T09:22:44;12.32;;;8.75;;
20251;SDS011;10284;58.364;15.550;2022-08-19T09:25:10;12.52;;;8.27;;
20251;SDS011;10284;58.364;15.550;2022-08-19T09:27:37;11.90;;;8.68;;
20251;SDS011;10284;58.364;15.550;2022-08-19T09:30:05;8.90;;;8.00;;
20251;SDS011;10284;58.364;15.550;2022-08-19T09:32:32;9.75;;;8.55;;
20251;SDS011;10284;58.364;15.550;2022-08-19T09:34:57;12.20;;;8.57;;
20251;SDS011;10284;58.364;15.550;2022-08-19T09:37:25;13.20;;;8.80;;
20251;SDS011;10284;58.364;15.550;2022-08-19T09:39:51;10.98;;;8.38;;
20251;SDS011;10284;58.364;15.550;2022-08-19T09:42:17;9.68;;;8.63;;
20251;SDS011;10284;58.364;15.550;2022-08-19T09:44:43;10.05;;;8.98;;
20251;SDS011;10284;58.364;15.550;2022-08-19T09:47:09;15.55;;;7.95;;
20251;SDS011;10284;58.364;15.550;2022-08-19T09:49:36;10.38;;;8.20;;
20251;SDS011;10284;58.364;15.550;2022-08-19T09:52:02;10.77;;;7.90;;
20251;SDS011;10284;58.364;15.550;2022-08-19T09:54:28;13.98;;;8.20;;
20251;SDS011;10284;58.364;15.550;2022-08-19T09:56:54;9.20;;;8.10;;
20251;SDS011;10284;58.364;15.550;2022-08-19T09:59:20;12.98;;;9.25;;
20251;SDS011;10284;58.364;15.550;2022-08-19T10:01:46;9.30;;;8.35;;
20251;SDS011;10284;58.364;15.550;2022-08-19T10:04:11;9.65;;;7.93;;
20251;SDS011;10284;58.364;15.550;2022-08-19T10:06:38;14.07;;;7.70;;
20251;SDS011;10284;58.364;15.550;2022-08-19T10:09:05;11.38;;;8.32;;
20251;SDS011;10284;58.364;15.550;2022-08-19T10:11:32;9.63;;;7.65;;
20251;SDS011;10284;58.364;15.550;2022-08-19T10:13:59;9.45;;;7.78;;
20251;SDS011;10284;58.364;15.550;2022-08-19T10:16:26;9.45;;;7.78;;
20251;SDS011;10284;58.364;15.550;2022-08-19T10:18:53;9.23;;;7.78;;
20251;SDS011;10284;58.364;15.550;2022-08-19T10:21:24;9.20;;;7.32;;
20251;SDS011;10284;58.364;15.550;2022-08-19T10:23:52;13.73;;;7.20;;
20251;SDS011;10284;58.364;15.550;2022-08-19T10:26:21;10.23;;;7.13;;
20251;SDS011;10284;58.364;15.550;2022-08-19T10:28:48;8.30;;;6.85;;
20251;SDS011;10284;58.364;15.550;2022-08-19T10:31:24;8.63;;;6.90;;
20251;SDS011;10284;58.364;15.550;2022-08-19T10:33:52;11.75;;;6.82;;
20251;SDS011;10284;58.364;15.550;2022-08-19T10:36:22;11.20;;;7.13;;
20251;SDS011;10284;58.364;15.550;2022-08-19T10:38:50;9.00;;;7.13;;
20251;SDS011;10284;58.364;15.550;2022-08-19T10:41:17;9.60;;;7.30;;
20251;SDS011;10284;58.364;15.550;2022-08-19T10:43:44;10.88;;;7.20;;
20251;SDS011;10284;58.364;15.550;2022-08-19T10:46:12;9.75;;;6.78;;
20251;SDS011;10284;58.364;15.550;2022-08-19T10:48:39;7.95;;;6.93;;
20251;SDS011;10284;58.364;15.550;2022-08-19T10:51:05;9.65;;;6.88;;
20251;SDS011;10284;58.364;15.550;2022-08-19T10:53:49;8.20;;;7.00;;
20251;SDS011;10284;58.364;15.550;2022-08-19T10:56:15;8.48;;;7.20;;
20251;SDS011;10284;58.364;15.550;2022-08-19T10:58:59;11.68;;;7.40;;
20251;SDS011;10284;58.364;15.550;2022-08-19T11:01:25;12.27;;;7.03;;
20251;SDS011;10284;58.364;15.550;2022-08-19T11:03:51;8.73;;;7.15;;
20251;SDS011;10284;58.364;15.550;2022-08-19T11:06:17;10.30;;;7.38;;
20251;SDS011;10284;58.364;15.550;2022-08-19T11:08:44;10.98;;;6.80;;
20251;SDS011;10284;58.364;15.550;2022-08-19T11:11:10;11.95;;;7.07;;
20251;SDS011;10284;58.364;15.550;2022-08-19T11:13:37;9.77;;;7.18;;
20251;SDS011;10284;58.364;15.550;2022-08-19T11:16:06;9.63;;;7.38;;
20251;SDS011;10284;58.364;15.550;2022-08-19T11:18:37;7.63;;;6.82;;
20251;SDS011;10284;58.364;15.550;2022-08-19T11:21:13;11.60;;;7.18;;
20251;SDS011;10284;58.364;15.550;2022-08-19T11:23:42;8.88;;;7.13;;
20251;SDS011;10284;58.364;15.550;2022-08-19T11:26:08;10.20;;;6.85;;
20251;SDS011;10284;58.364;15.550;2022-08-19T11:28:33;11.10;;;6.68;;
20251;SDS011;10284;58.364;15.550;2022-08-19T11:30:59;6.95;;;6.18;;
20251;SDS011;10284;58.364;15.550;2022-08-19T11:33:24;9.73;;;6.75;;
20251;SDS011;10284;58.364;15.550;2022-08-19T11:35:51;8.30;;;6.78;;
20251;SDS011;10284;58.364;15.550;2022-08-19T11:38:18;9.88;;;6.72;;
20251;SDS011;10284;58.364;15.550;2022-08-19T11:40:43;10.13;;;7.82;;
20251;SDS011;10284;58.364;15.550;2022-08-19T11:43:09;8.73;;;6.82;;
20251;SDS011;10284;58.364;15.550;2022-08-19T11:45:34;10.05;;;6.80;;
20251;SDS011;10284;58.364;15.550;2022-08-19T11:48:00;12.32;;;7.20;;
20251;SDS011;10284;58.364;15.550;2022-08-19T11:50:27;8.50;;;7.43;;
20251;SDS011;10284;58.364;15.550;2022-08-19T11:52:55;8.57;;;6.80;;
20251;SDS011;10284;58.364;15.550;2022-08-19T11:55:22;8.80;;;7.00;;
20251;SDS011;10284;58.364;15.550;2022-08-19T11:57:48;9.73;;;6.90;;
20251;SDS011;10284;58.364;15.550;2022-08-19T12:00:13;7.72;;;7.03;;
20251;SDS011;10284;58.364;15.550;2022-08-19T12:02:39;9.38;;;6.55;;
20251;SDS011;10284;58.364;15.550;2022-08-19T12:05:05;8.52;;;7.25;;
20251;SDS011;10284;58.364;15.550;2022-08-19T12:07:31;12.50;;;7.15;;
20251;SDS011;10284;58.364;15.550;2022-08-19T12:09:58;8.00;;;6.90;;
20251;SDS011;10284;58.364;15.550;2022-08-19T12:12:24;11.13;;;6.45;;
20251;SDS011;10284;58.364;15.550;2022-08-19T12:14:51;9.52;;;6.85;;
20251;SDS011;10284;58.364;15.550;2022-08-19T12:17:22;7.80;;;7.05;;
20251;SDS011;10284;58.364;15.550;2022-08-19T12:19:48;9.43;;;6.93;;
20251;SDS011;10284;58.364;15.550;2022-08-19T12:22:13;7.95;;;7.18;;
20251;SDS011;10284;58.364;15.550;2022-08-19T12:24:39;8.95;;;7.00;;
20251;SDS011;10284;58.364;15.550;2022-08-19T12:27:04;11.02;;;7.00;;
20251;SDS011;10284;58.364;15.550;2022-08-19T12:29:30;7.80;;;6.65;;
20251;SDS011;10284;58.364;15.550;2022-08-19T12:31:56;8.52;;;6.70;;
20251;SDS011;10284;58.364;15.550;2022-08-19T12:34:26;8.15;;;6.50;;
20251;SDS011;10284;58.364;15.550;2022-08-19T12:36:55;7.80;;;6.93;;
20251;SDS011;10284;58.364;15.550;2022-08-19T12:39:21;12.38;;;7.15;;
20251;SDS011;10284;58.364;15.550;2022-08-19T12:41:46;10.82;;;6.78;;
20251;SDS011;10284;58.364;15.550;2022-08-19T12:44:14;8.98;;;7.10;;
20251;SDS011;10284;58.364;15.550;2022-08-19T12:46:39;7.10;;;6.40;;
20251;SDS011;10284;58.364;15.550;2022-08-19T12:49:05;9.45;;;7.03;;
20251;SDS011;10284;58.364;15.550;2022-08-19T12:51:30;7.85;;;6.47;;
20251;SDS011;10284;58.364;15.550;2022-08-19T12:53:56;7.90;;;6.90;;
20251;SDS011;10284;58.364;15.550;2022-08-19T12:56:22;9.98;;;6.65;;
20251;SDS011;10284;58.364;15.550;2022-08-19T12:58:47;7.50;;;6.55;;
20251;SDS011;10284;58.364;15.550;2022-08-19T13:01:13;7.65;;;6.65;;
20251;SDS011;10284;58.364;15.550;2022-08-19T13:03:41;11.00;;;7.10;;
20251;SDS011;10284;58.364;15.550;2022-08-19T13:06:07;8.10;;;6.90;;
20251;SDS011;10284;58.364;15.550;2022-08-19T13:08:33;9.70;;;6.47;;
20251;SDS011;10284;58.364;15.550;2022-08-19T13:11:06;8.35;;;6.32;;
20251;SDS011;10284;58.364;15.550;2022-08-19T13:13:42;7.50;;;6.60;;
20251;SDS011;10284;58.364;15.550;2022-08-19T13:16:09;10.50;;;6.30;;
20251;SDS011;10284;58.364;15.550;2022-08-19T13:18:35;11.80;;;7.00;;
20251;SDS011;10284;58.364;15.550;2022-08-19T13:21:02;8.73;;;6.45;;
20251;SDS011;10284;58.364;15.550;2022-08-19T13:23:29;9.63;;;6.15;;
20251;SDS011;10284;58.364;15.550;2022-08-19T13:25:58;13.63;;;6.63;;
20251;SDS011;10284;58.364;15.550;2022-08-19T13:28:24;7.25;;;6.00;;
20251;SDS011;10284;58.364;15.550;2022-08-19T13:31:14;8.38;;;6.25;;
20251;SDS011;10284;58.364;15.550;2022-08-19T13:33:58;8.48;;;5.72;;
20251;SDS011;10284;58.364;15.550;2022-08-19T13:36:24;11.48;;;6.05;;
20251;SDS011;10284;58.364;15.550;2022-08-19T13:38:49;9.05;;;6.07;;
20251;SDS011;10284;58.364;15.550;2022-08-19T13:41:15;7.50;;;5.68;;
20251;SDS011;10284;58.364;15.550;2022-08-19T13:43:40;7.57;;;5.72;;
20251;SDS011;10284;58.364;15.550;2022-08-19T13:46:08;7.18;;;5.90;;
20251;SDS011;10284;58.364;15.550;2022-08-19T13:48:34;11.50;;;6.22;;
20251;SDS011;10284;58.364;15.550;2022-08-19T13:51:00;7.97;;;5.78;;
20251;SDS011;10284;58.364;15.550;2022-08-19T13:53:25;9.07;;;5.72;;
20251;SDS011;10284;58.364;15.550;2022-08-19T13:55:51;8.85;;;5.57;;
20251;SDS011;10284;58.364;15.550;2022-08-19T13:58:18;7.95;;;6.45;;
20251;SDS011;10284;58.364;15.550;2022-08-19T14:00:44;9.07;;;6.05;;
20251;SDS011;10284;58.364;15.550;2022-08-19T14:03:11;9.75;;;5.97;;
20251;SDS011;10284;58.364;15.550;2022-08-19T14:05:37;8.43;;;5.88;;
20251;SDS011;10284;58.364;15.550;2022-08-19T14:08:03;8.35;;;6.00;;
20251;SDS011;10284;58.364;15.550;2022-08-19T14:10:28;7.85;;;6.15;;
20251;SDS011;10284;58.364;15.550;2022-08-19T14:12:56;7.55;;;6.20;;
20251;SDS011;10284;58.364;15.550;2022-08-19T14:15:23;7.97;;;6.07;;
20251;SDS011;10284;58.364;15.550;2022-08-19T14:17:49;11.70;;;6.10;;
20251;SDS011;10284;58.364;15.550;2022-08-19T14:20:15;14.45;;;5.95;;
20251;SDS011;10284;58.364;15.550;2022-08-19T14:22:42;9.27;;;6.28;;
20251;SDS011;10284;58.364;15.550;2022-08-19T14:25:10;16.95;;;6.28;;
20251;SDS011;10284;58.364;15.550;2022-08-19T14:27:37;13.82;;;6.28;;
20251;SDS011;10284;58.364;15.550;2022-08-19T14:30:04;9.23;;;5.43;;
20251;SDS011;10284;58.364;15.550;2022-08-19T14:32:31;10.00;;;5.85;;
20251;SDS011;10284;58.364;15.550;2022-08-19T14:34:57;12.50;;;6.40;;